TAF KJAN
KJAN 090625Z 0906/1006 15004KT P6SM SCT250 FM091400 16005KT P6SM OVC018 FM091600 17010G17KT P6SM OVC015 FM100100 16005KT 2SM BR VCSH OVC005=
METAR KJAN
WC KJAN
WS KJAN
WV KJAN